Historique des mesures à Cassis (13260), France
Quotidien Résumé Mars 24, 2017 Unités:  Métrique    US   Métrique/US
« Précédent (Jour)
Suivant (Jour) »
Quotidien Hebdomadaire Mensuel Annuel Période au choix
  Maximum: Minimum: Moyenne:
Température: TemperatureC °C 12.2 °C 13.8 °C
Point de rosée: DewpointC °C 8.8 °C 10.1 °C
Humidité: Humidity % 58 % 74 %
Vitesse du vent: 0 km/h 0 km/h 10.5 km/h
Rafales: 0 km/h - -
Vent:- - SE
Pression: PressurehPa hPa 1011.7 hPa -
Précipitations: 2.5 mm    
Historical Graphs
 
 
Mesures pour : Mars 24, 2017
Heure Temperature Point de rosée Pression Vent Vitesse du vent Rafales Humidité Pluie (par heure) Conditions
TemperatureC °C DewpointC °C PressurehPa hPa Calm     Humidity % HourlyPrecipMM mm SoftwareType W/m2
01:10 12.8 °C 10.7 °C 1013.8 hPa SSW 3.4 km/h 6.4 km/h 87 % 0.5 mm open2300-1.11 W/m2
02:11 12.8 °C 10.7 °C 1013.4 hPa SSE 5.1 km/h 6.9 km/h 87 % 0.0 mm open2300-1.11 W/m2
03:10 12.6 °C 10.7 °C 1013.1 hPa ESE 18.7 km/h 18.7 km/h 88 % 0.0 mm open2300-1.11 W/m2
04:11 12.5 °C 10.6 °C 1013.1 hPa ESE 9.3 km/h 17.4 km/h 88 % 0.5 mm open2300-1.11 W/m2
05:10 12.2 °C 10.3 °C 1013.1 hPa SE 14.5 km/h 14.5 km/h 88 % 0.5 mm open2300-1.11 W/m2
06:11 12.3 °C 10.2 °C 1013.8 hPa SSE 10.3 km/h 10.3 km/h 87 % 0.0 mm open2300-1.11 W/m2
07:10 12.3 °C 10.3 °C 1013.4 hPa ESE 3.4 km/h 4.2 km/h 88 % 0.5 mm open2300-1.11 W/m2
08:11 12.5 °C 10.4 °C 1013.4 hPa Calm     87 % 0.0 mm open2300-1.11 W/m2
09:10 13.1 °C 10.8 °C 1013.4 hPa SSE 16.3 km/h 16.3 km/h 86 % 0.0 mm open2300-1.11 W/m2
10:11 14.0 °C 11.5 °C 1013.4 hPa SE 18.7 km/h 18.7 km/h 85 % 0.0 mm open2300-1.11 W/m2
11:10 14.2 °C 11.5 °C 1013.8 hPa ESE 8 km/h 8 km/h 84 % 0.0 mm open2300-1.11 W/m2
12:11 15.2 °C 11.8 °C 1013.4 hPa SSE 12.7 km/h 12.7 km/h 80 % 0.0 mm open2300-1.11 W/m2
13:10 16.3 °C 12.5 °C 1012.8 hPa SE 23.8 km/h 23.8 km/h 78 % 0.0 mm open2300-1.11 W/m2
14:11 15.9 °C 11.7 °C 1013.4 hPa SE 40.7 km/h 40.7 km/h 76 % 0.0 mm open2300-1.11 W/m2
15:10 16.3 °C 11.3 °C 1013.1 hPa ESE 8.9 km/h 12.7 km/h 72 % 0.0 mm open2300-1.11 W/m2
16:11 16.4 °C 11.2 °C 1013.8 hPa SE 10.9 km/h 10.9 km/h 71 % 0.0 mm open2300-1.11 W/m2
18:11 16.1 °C 9.8 °C 1013.4 hPa SSE 12.7 km/h 12.7 km/h 66 % 0.0 mm open2300-1.11 W/m2
20:11 16.1 °C 9.1 °C 1012.8 hPa SE 4.2 km/h 9.3 km/h 63 % 0.0 mm open2300-1.11 W/m2
21:10 16.7 °C 8.9 °C 1012.4 hPa Calm   10.3 km/h 60 % 0.0 mm open2300-1.11 W/m2
22:11 17.1 °C 8.8 °C 1011.7 hPa East 9.3 km/h 26.7 km/h 58 % 0.0 mm open2300-1.11 W/m2
23:10 17.1 °C 8.8 °C 1012.4 hPa Calm   12.2 km/h 58 % 0.0 mm open2300-1.11 W/m2
Observations météo à CASSIS
WU-History script by Weather Underground - 1 mb